createdAt,value
2023-03-30T00:01:14.594Z,11.10
2023-03-30T00:03:44.120Z,11.00
2023-03-30T00:06:14.712Z,11.00
2023-03-30T00:08:42.719Z,10.80
2023-03-30T00:11:16.478Z,10.90
2023-03-30T00:13:45.404Z,11.00
2023-03-30T00:16:15.012Z,10.90
2023-03-30T00:18:44.990Z,11.00
2023-03-30T00:21:13.378Z,11.00
2023-03-30T00:23:41.703Z,10.70
2023-03-30T00:26:09.709Z,10.70
2023-03-30T00:28:39.069Z,10.80
2023-03-30T00:31:07.227Z,10.90
2023-03-30T00:33:45.614Z,10.80
2023-03-30T00:36:15.640Z,10.70
2023-03-30T00:38:43.873Z,10.60
2023-03-30T00:41:12.247Z,10.50
2023-03-30T00:43:58.444Z,10.50
2023-03-30T00:46:26.815Z,10.50
2023-03-30T00:48:58.212Z,10.50
2023-03-30T00:51:29.126Z,10.40
2023-03-30T00:54:03.425Z,10.50
2023-03-30T00:56:32.173Z,10.50
2023-03-30T00:59:03.633Z,10.40
2023-03-30T01:01:38.498Z,10.50
2023-03-30T01:04:08.519Z,10.40
2023-03-30T01:06:40.003Z,10.50
2023-03-30T01:09:08.349Z,10.30
2023-03-30T01:11:36.466Z,10.30
2023-03-30T01:14:09.645Z,10.40
2023-03-30T01:16:45.797Z,10.30
2023-03-30T01:19:53.375Z,10.20
2023-03-30T01:22:54.272Z,10.20
2023-03-30T01:25:49.264Z,10.40
2023-03-30T01:28:37.633Z,10.50
2023-03-30T01:31:49.957Z,10.30
2023-03-30T01:34:48.016Z,10.40
2023-03-30T01:38:08.712Z,10.40
2023-03-30T01:40:44.022Z,10.50
2023-03-30T01:43:19.220Z,10.50
2023-03-30T01:45:52.405Z,10.60
2023-03-30T01:48:29.291Z,10.70
2023-03-30T01:51:02.273Z,10.80
2023-03-30T01:53:34.875Z,10.70
2023-03-30T01:56:10.649Z,10.80
2023-03-30T01:58:44.481Z,10.80
2023-03-30T02:01:17.419Z,10.80
2023-03-30T02:03:52.128Z,10.90
2023-03-30T02:06:26.575Z,10.60
2023-03-30T02:08:59.250Z,10.60
2023-03-30T02:11:30.472Z,10.80
2023-03-30T02:14:00.542Z,10.80
2023-03-30T02:16:34.713Z,10.80
2023-03-30T02:19:04.405Z,11.00
2023-03-30T02:21:32.847Z,11.10
2023-03-30T02:24:03.577Z,10.80
2023-03-30T02:26:34.035Z,10.80
2023-03-30T02:29:02.131Z,10.90
2023-03-30T02:31:30.187Z,11.00
2023-03-30T02:34:11.399Z,11.10
2023-03-30T02:37:00.568Z,11.20
2023-03-30T02:39:43.146Z,11.10
2023-03-30T02:42:37.480Z,11.10
2023-03-30T02:45:20.851Z,11.20
2023-03-30T02:48:02.354Z,11.40
2023-03-30T02:50:40.538Z,11.10
2023-03-30T02:53:18.871Z,11.20
2023-03-30T02:55:57.885Z,11.20
2023-03-30T02:58:36.036Z,11.30
2023-03-30T03:01:09.816Z,11.30
2023-03-30T03:03:42.666Z,11.20
2023-03-30T03:06:11.587Z,11.10
2023-03-30T03:08:44.163Z,11.00
2023-03-30T03:11:12.639Z,11.10
2023-03-30T03:13:42.200Z,11.30
2023-03-30T03:16:12.348Z,11.20
2023-03-30T03:18:41.532Z,11.00
2023-03-30T03:21:10.416Z,11.10
2023-03-30T03:23:39.147Z,11.30
2023-03-30T03:26:07.645Z,11.20
2023-03-30T03:28:36.285Z,11.10
2023-03-30T03:31:06.503Z,11.20
2023-03-30T03:33:34.967Z,11.10
2023-03-30T03:36:03.542Z,11.30
2023-03-30T03:38:31.557Z,11.30
2023-03-30T03:41:00.643Z,11.20
2023-03-30T03:43:28.696Z,11.10
2023-03-30T03:45:56.847Z,11.10
2023-03-30T03:48:26.600Z,10.90
2023-03-30T03:50:56.943Z,11.10
2023-03-30T03:53:27.494Z,11.10
2023-03-30T03:55:56.158Z,11.30
2023-03-30T03:58:25.839Z,11.30
2023-03-30T04:00:59.184Z,11.20
2023-03-30T04:03:28.918Z,11.40
2023-03-30T04:06:01.019Z,11.20
2023-03-30T04:08:29.473Z,11.30
2023-03-30T04:10:57.979Z,11.30
2023-03-30T04:13:26.046Z,11.10
2023-03-30T04:15:54.211Z,11.20
2023-03-30T04:18:22.630Z,11.20
2023-03-30T04:20:52.019Z,11.20
2023-03-30T04:23:22.026Z,11.40
2023-03-30T04:25:51.749Z,11.30
2023-03-30T04:28:21.657Z,11.20
2023-03-30T04:30:50.622Z,11.30
2023-03-30T04:33:19.274Z,11.40
2023-03-30T04:35:47.394Z,11.40
2023-03-30T04:38:22.084Z,11.50
2023-03-30T04:40:50.656Z,11.50
2023-03-30T04:43:21.388Z,11.40
2023-03-30T04:45:51.331Z,11.70
2023-03-30T04:48:20.695Z,11.70
2023-03-30T04:50:50.320Z,11.60
2023-03-30T04:53:20.301Z,11.70
2023-03-30T04:55:50.578Z,11.80
2023-03-30T04:58:19.075Z,11.80
2023-03-30T05:00:47.351Z,11.70
2023-03-30T05:03:15.509Z,11.70
2023-03-30T05:05:43.771Z,11.80
2023-03-30T05:08:16.479Z,11.60
2023-03-30T05:10:45.804Z,11.30
2023-03-30T05:13:13.916Z,11.10
2023-03-30T05:15:41.963Z,11.20
2023-03-30T05:18:10.011Z,11.20
2023-03-30T05:20:38.150Z,11.30
2023-03-30T05:23:06.095Z,11.20
2023-03-30T05:25:34.075Z,11.10
2023-03-30T05:28:03.452Z,11.00
2023-03-30T05:30:31.588Z,10.90
2023-03-30T05:32:59.623Z,11.10
2023-03-30T05:35:27.728Z,11.00
2023-03-30T05:37:55.769Z,11.00
2023-03-30T05:40:24.148Z,10.90
2023-03-30T05:42:52.218Z,11.10
2023-03-30T05:45:21.591Z,11.00
2023-03-30T05:47:49.606Z,10.90
2023-03-30T05:50:17.976Z,10.90
2023-03-30T05:52:45.962Z,10.90
2023-03-30T05:55:13.974Z,11.00
2023-03-30T05:57:42.329Z,11.00
2023-03-30T06:00:13.629Z,11.30
2023-03-30T06:02:43.186Z,11.50
2023-03-30T06:05:11.442Z,11.50
2023-03-30T06:07:39.770Z,11.50
2023-03-30T06:10:10.442Z,11.60
2023-03-30T06:12:39.389Z,11.50
2023-03-30T06:15:09.182Z,11.50
2023-03-30T06:17:37.840Z,11.50
2023-03-30T06:20:12.471Z,11.40
2023-03-30T06:22:42.422Z,11.50
2023-03-30T06:25:13.443Z,11.70
2023-03-30T06:27:45.025Z,11.90
2023-03-30T06:30:15.304Z,12.00
2023-03-30T06:32:43.476Z,12.00
2023-03-30T06:35:13.598Z,12.10
2023-03-30T06:37:41.656Z,12.10
2023-03-30T06:40:13.931Z,12.20
2023-03-30T06:42:44.041Z,12.20
2023-03-30T06:45:12.973Z,12.20
2023-03-30T06:47:42.256Z,12.10
2023-03-30T06:50:13.326Z,12.20
2023-03-30T06:52:41.410Z,12.20
2023-03-30T06:55:10.496Z,12.10
2023-03-30T06:57:38.607Z,12.20
2023-03-30T07:00:13.535Z,12.30
2023-03-30T07:02:41.838Z,12.40
2023-03-30T07:05:13.035Z,12.60
2023-03-30T07:07:41.102Z,12.80
2023-03-30T07:10:11.087Z,12.70
2023-03-30T07:12:40.747Z,12.80
2023-03-30T07:15:09.993Z,12.80
2023-03-30T07:17:39.377Z,12.80
2023-03-30T07:20:10.859Z,13.00
2023-03-30T07:22:40.215Z,12.90
2023-03-30T07:25:09.918Z,13.00
2023-03-30T07:27:38.392Z,13.00
2023-03-30T07:30:20.781Z,13.10
2023-03-30T07:32:50.348Z,13.20
2023-03-30T07:35:19.061Z,13.30
2023-03-30T07:37:50.626Z,13.30
2023-03-30T07:40:19.573Z,13.30
2023-03-30T07:42:48.104Z,13.40
2023-03-30T07:45:16.817Z,13.40
2023-03-30T07:47:44.984Z,13.40
2023-03-30T07:50:13.212Z,13.40
2023-03-30T07:52:41.285Z,13.30
2023-03-30T07:55:11.030Z,13.50
2023-03-30T07:57:39.114Z,13.40
2023-03-30T08:00:10.388Z,13.30
2023-03-30T08:02:39.005Z,13.30
2023-03-30T08:05:07.914Z,13.40
2023-03-30T08:07:36.622Z,13.40
2023-03-30T08:10:05.680Z,13.60
2023-03-30T08:12:36.434Z,13.90
2023-03-30T08:15:04.971Z,14.40
2023-03-30T08:17:33.041Z,14.80
2023-03-30T08:20:01.722Z,14.90
2023-03-30T08:22:29.805Z,14.80
2023-03-30T08:24:58.009Z,14.80
2023-03-30T08:27:26.079Z,15.00
2023-03-30T08:29:55.420Z,15.10
2023-03-30T08:32:23.817Z,15.60
2023-03-30T08:34:53.805Z,15.70
2023-03-30T08:37:21.947Z,15.80
2023-03-30T08:39:49.960Z,15.80
2023-03-30T08:42:40.784Z,15.70
2023-03-30T08:45:12.693Z,15.70
2023-03-30T08:47:44.186Z,15.70
2023-03-30T08:50:21.842Z,15.50
2023-03-30T08:52:53.096Z,15.40
2023-03-30T08:55:26.418Z,15.50
2023-03-30T08:58:00.659Z,15.60
2023-03-30T09:00:41.017Z,15.60
2023-03-30T09:03:18.980Z,15.50
2023-03-30T09:05:53.065Z,15.40
2023-03-30T09:08:28.348Z,15.20
2023-03-30T09:11:01.043Z,15.20
2023-03-30T09:13:33.568Z,15.10
2023-03-30T09:16:16.069Z,15.10
2023-03-30T09:18:47.883Z,15.00
2023-03-30T09:21:16.489Z,15.10
2023-03-30T09:23:44.827Z,15.10
2023-03-30T09:26:22.202Z,15.10
2023-03-30T09:29:03.606Z,15.10
2023-03-30T09:31:39.938Z,15.20
2023-03-30T09:34:21.313Z,15.40
2023-03-30T09:36:58.757Z,15.70
2023-03-30T09:39:30.368Z,15.70
2023-03-30T09:42:14.462Z,15.80
2023-03-30T09:44:48.789Z,16.00
2023-03-30T09:47:28.188Z,15.70
2023-03-30T09:50:02.305Z,15.80
2023-03-30T09:52:34.155Z,16.00
2023-03-30T09:55:22.728Z,16.10
2023-03-30T09:57:51.340Z,16.20
2023-03-30T10:00:29.544Z,16.00
2023-03-30T10:03:00.815Z,16.00
2023-03-30T10:05:29.510Z,15.80
2023-03-30T10:08:00.216Z,15.90
2023-03-30T10:10:36.451Z,15.80
2023-03-30T10:13:08.541Z,16.10
2023-03-30T10:15:40.062Z,16.30
2023-03-30T10:18:25.121Z,16.50
2023-03-30T10:20:55.471Z,18.20
2023-03-30T10:23:24.914Z,18.90
2023-03-30T10:26:03.540Z,18.80
2023-03-30T10:28:36.382Z,18.20
2023-03-30T10:31:09.104Z,18.40
2023-03-30T10:33:44.285Z,19.30
2023-03-30T10:36:15.214Z,19.50
2023-03-30T10:38:45.656Z,19.00
2023-03-30T10:41:17.797Z,18.40
2023-03-30T10:43:46.193Z,17.50
2023-03-30T10:46:20.322Z,17.50
2023-03-30T10:49:05.917Z,17.90
2023-03-30T10:51:47.917Z,18.00
2023-03-30T10:54:23.579Z,17.90
2023-03-30T10:56:56.516Z,17.70
2023-03-30T10:59:46.554Z,17.50
2023-03-30T11:02:44.481Z,17.70
2023-03-30T11:05:17.826Z,17.70
2023-03-30T11:07:52.300Z,18.20
2023-03-30T11:10:22.910Z,18.70
2023-03-30T11:12:56.824Z,19.30
2023-03-30T11:15:31.219Z,20.20
2023-03-30T11:18:06.995Z,21.60
2023-03-30T11:20:43.042Z,22.40
2023-03-30T11:23:23.119Z,22.30
2023-03-30T11:26:00.560Z,22.80
2023-03-30T11:29:07.026Z,21.80
2023-03-30T11:31:47.972Z,21.40
2023-03-30T11:34:28.255Z,20.50
2023-03-30T11:37:07.418Z,20.20
2023-03-30T11:39:39.164Z,20.50
2023-03-30T11:42:16.638Z,20.20
2023-03-30T11:44:44.820Z,20.00
2023-03-30T11:47:35.506Z,19.80
2023-03-30T11:50:16.123Z,19.40
2023-03-30T11:52:56.089Z,18.70
2023-03-30T11:55:44.792Z,18.80
2023-03-30T11:58:26.739Z,19.10
2023-03-30T12:01:15.358Z,19.00
2023-03-30T12:03:47.455Z,18.80
2023-03-30T12:06:29.415Z,18.50
2023-03-30T12:09:24.348Z,18.10
2023-03-30T12:11:56.785Z,18.20
2023-03-30T12:14:50.619Z,18.50
2023-03-30T12:17:43.032Z,18.60
2023-03-30T12:20:33.379Z,18.70
2023-03-30T12:23:12.786Z,18.80
2023-03-30T12:26:03.181Z,18.90
2023-03-30T12:29:06.503Z,19.00
2023-03-30T12:32:06.410Z,18.90
2023-03-30T12:34:37.611Z,18.30
2023-03-30T12:37:13.776Z,17.60
2023-03-30T12:39:48.972Z,17.20
2023-03-30T12:42:27.413Z,16.70
2023-03-30T12:45:25.998Z,16.50
2023-03-30T12:48:22.169Z,16.40
2023-03-30T12:51:05.000Z,16.20
2023-03-30T12:54:09.017Z,16.20
2023-03-30T12:56:43.313Z,16.40
2023-03-30T12:59:42.161Z,16.50
2023-03-30T13:03:04.134Z,16.60
2023-03-30T13:05:36.642Z,16.60
2023-03-30T13:08:08.173Z,16.50
2023-03-30T13:10:42.999Z,16.50
2023-03-30T13:13:25.315Z,16.40
2023-03-30T13:15:57.860Z,16.20
2023-03-30T13:18:42.432Z,16.30
2023-03-30T13:21:25.908Z,16.30
2023-03-30T13:24:05.720Z,16.30
2023-03-30T13:26:48.195Z,16.30
2023-03-30T13:29:18.398Z,16.70
2023-03-30T13:32:03.890Z,16.90
2023-03-30T13:35:06.172Z,16.90
2023-03-30T13:37:53.843Z,16.70
2023-03-30T13:40:39.686Z,16.60
2023-03-30T13:43:26.497Z,16.90
2023-03-30T13:46:09.553Z,16.80
2023-03-30T13:48:57.744Z,16.90
2023-03-30T13:51:29.959Z,17.00
2023-03-30T13:54:01.093Z,17.00
2023-03-30T13:56:34.002Z,17.10
2023-03-30T13:59:07.383Z,17.20
2023-03-30T14:01:39.630Z,16.70
2023-03-30T14:04:13.731Z,16.40
2023-03-30T14:06:46.941Z,15.70
2023-03-30T14:09:20.496Z,15.30
2023-03-30T14:11:52.276Z,14.20
2023-03-30T14:14:27.955Z,13.60
2023-03-30T14:16:57.828Z,13.60
2023-03-30T14:19:30.441Z,13.70
2023-03-30T14:22:03.357Z,13.50
2023-03-30T14:24:33.759Z,13.40
2023-03-30T14:27:08.882Z,13.40
2023-03-30T14:29:46.134Z,13.10
2023-03-30T14:32:16.910Z,13.20
2023-03-30T14:34:49.384Z,13.40
2023-03-30T14:37:21.067Z,13.30
2023-03-30T14:39:54.630Z,13.30
2023-03-30T14:42:25.889Z,13.50
2023-03-30T14:44:56.915Z,13.60
2023-03-30T14:47:27.505Z,13.70
2023-03-30T14:49:59.882Z,13.70
2023-03-30T14:52:33.025Z,13.90
2023-03-30T14:55:05.880Z,14.20
2023-03-30T14:57:39.415Z,14.40
2023-03-30T15:00:21.013Z,14.50
2023-03-30T15:02:53.316Z,14.30
2023-03-30T15:05:25.691Z,14.50
2023-03-30T15:07:54.373Z,14.50
2023-03-30T15:10:26.581Z,14.40
2023-03-30T15:12:58.117Z,14.50
2023-03-30T15:15:31.117Z,14.80
2023-03-30T15:18:00.402Z,15.00
2023-03-30T15:20:32.185Z,14.70
2023-03-30T15:23:01.722Z,14.90
2023-03-30T15:25:35.145Z,14.70
2023-03-30T15:28:07.564Z,14.80
2023-03-30T15:30:40.032Z,14.90
2023-03-30T15:33:20.844Z,14.70
2023-03-30T15:35:52.334Z,14.90
2023-03-30T15:38:30.108Z,14.90
2023-03-30T15:40:58.546Z,15.00
2023-03-30T15:43:30.761Z,15.00
2023-03-30T15:46:03.754Z,14.80
2023-03-30T15:48:37.413Z,15.10
2023-03-30T15:51:12.763Z,15.00
2023-03-30T15:53:49.353Z,15.00
2023-03-30T15:56:22.613Z,14.90
2023-03-30T15:58:51.805Z,14.80
2023-03-30T16:01:20.190Z,14.90
2023-03-30T16:03:56.972Z,14.70
2023-03-30T16:06:26.425Z,14.60
2023-03-30T16:08:54.409Z,14.70
2023-03-30T16:11:23.670Z,14.40
2023-03-30T16:13:54.217Z,14.50
2023-03-30T16:16:22.484Z,14.50
2023-03-30T16:18:50.834Z,14.40
2023-03-30T16:21:19.957Z,14.50
2023-03-30T16:23:49.338Z,14.40
2023-03-30T16:26:17.390Z,14.10
2023-03-30T16:28:45.969Z,14.30
2023-03-30T16:31:19.434Z,14.30
2023-03-30T16:33:47.599Z,14.30
2023-03-30T16:36:19.388Z,14.50
2023-03-30T16:38:49.834Z,14.60
2023-03-30T16:41:21.774Z,14.50
2023-03-30T16:43:50.436Z,14.50
2023-03-30T16:46:21.262Z,14.60
2023-03-30T16:48:49.465Z,14.70
2023-03-30T16:51:18.317Z,14.40
2023-03-30T16:53:47.648Z,14.30
2023-03-30T16:56:20.071Z,14.30
2023-03-30T16:58:48.707Z,14.10
2023-03-30T17:01:18.638Z,14.00
2023-03-30T17:03:47.212Z,13.90
2023-03-30T17:06:16.887Z,13.90
2023-03-30T17:08:44.969Z,13.90
2023-03-30T17:11:13.552Z,13.80
2023-03-30T17:13:43.555Z,13.80
2023-03-30T17:16:14.345Z,13.80
2023-03-30T17:18:42.370Z,13.60
2023-03-30T17:21:16.114Z,13.30
2023-03-30T17:23:46.368Z,13.20
2023-03-30T17:26:14.689Z,13.20
2023-03-30T17:28:44.974Z,13.10
2023-03-30T17:31:17.337Z,13.00
2023-03-30T17:33:46.079Z,12.70
2023-03-30T17:36:18.913Z,12.70
2023-03-30T17:38:47.655Z,12.60
2023-03-30T17:41:19.119Z,12.60
2023-03-30T17:43:49.232Z,12.50
2023-03-30T17:46:19.798Z,12.20
2023-03-30T17:48:48.597Z,12.10
2023-03-30T17:51:16.598Z,12.10
2023-03-30T17:53:44.589Z,12.10
2023-03-30T17:56:13.946Z,12.00
2023-03-30T17:58:41.996Z,12.20
2023-03-30T18:01:12.799Z,12.00
2023-03-30T18:03:41.014Z,12.00
2023-03-30T18:06:14.611Z,11.80
2023-03-30T18:08:46.004Z,11.80
2023-03-30T18:11:14.150Z,11.80
2023-03-30T18:13:42.191Z,11.90
2023-03-30T18:16:13.847Z,11.90
2023-03-30T18:18:41.909Z,12.00
2023-03-30T18:21:11.856Z,12.00
2023-03-30T18:23:39.864Z,12.10
2023-03-30T18:26:12.128Z,12.20
2023-03-30T18:28:43.576Z,12.20
2023-03-30T18:31:13.725Z,12.20
2023-03-30T18:33:41.740Z,12.00
2023-03-30T18:36:12.777Z,11.90
2023-03-30T18:38:41.491Z,11.70
2023-03-30T18:41:12.356Z,11.80
2023-03-30T18:43:40.424Z,11.80
2023-03-30T18:46:10.654Z,11.70
2023-03-30T18:48:39.978Z,11.70
2023-03-30T18:51:08.049Z,11.60
2023-03-30T18:53:36.909Z,11.60
2023-03-30T18:56:07.971Z,11.50
2023-03-30T18:58:41.570Z,11.50
2023-03-30T19:01:12.762Z,11.50
2023-03-30T19:03:42.775Z,11.40
2023-03-30T19:06:14.013Z,11.40
2023-03-30T19:08:43.408Z,11.40
2023-03-30T19:11:14.631Z,11.30
2023-03-30T19:13:42.676Z,11.20
2023-03-30T19:16:11.106Z,11.00
2023-03-30T19:18:39.163Z,11.10
2023-03-30T19:21:10.760Z,10.90
2023-03-30T19:23:38.787Z,10.90
2023-03-30T19:26:07.401Z,11.00
2023-03-30T19:28:35.849Z,11.00
2023-03-30T19:31:10.243Z,11.00
2023-03-30T19:33:38.670Z,10.90
2023-03-30T19:36:12.875Z,11.00
2023-03-30T19:38:41.964Z,10.90
2023-03-30T19:41:10.108Z,10.70
2023-03-30T19:43:38.372Z,10.60
2023-03-30T19:46:08.653Z,10.50
2023-03-30T19:48:36.956Z,10.80
2023-03-30T19:51:06.367Z,10.80
2023-03-30T19:53:37.214Z,10.80
2023-03-30T19:56:11.650Z,10.90
2023-03-30T19:58:39.904Z,10.80
2023-03-30T20:01:10.337Z,11.00
2023-03-30T20:03:38.925Z,11.20
2023-03-30T20:06:10.980Z,11.20
2023-03-30T20:08:40.724Z,11.00
2023-03-30T20:11:10.097Z,10.80
2023-03-30T20:13:38.431Z,10.90
2023-03-30T20:16:07.222Z,10.80
2023-03-30T20:18:35.634Z,10.90
2023-03-30T20:21:04.619Z,10.80
2023-03-30T20:23:33.024Z,10.70
2023-03-30T20:26:04.757Z,10.70
2023-03-30T20:28:33.284Z,10.80
2023-03-30T20:31:01.677Z,10.60
2023-03-30T20:33:30.717Z,10.70
2023-03-30T20:35:59.178Z,10.80
2023-03-30T20:38:27.213Z,10.80
2023-03-30T20:40:56.688Z,10.70
2023-03-30T20:43:26.908Z,10.60
2023-03-30T20:46:02.386Z,10.30
2023-03-30T20:48:33.297Z,10.40
2023-03-30T20:51:03.731Z,10.40
2023-03-30T20:53:33.902Z,10.40
2023-03-30T20:56:03.727Z,10.50
2023-03-30T20:58:34.104Z,10.80
2023-03-30T21:01:12.066Z,10.70
2023-03-30T21:03:41.277Z,10.70
2023-03-30T21:06:09.818Z,10.70
2023-03-30T21:08:38.239Z,10.80
2023-03-30T21:11:07.840Z,11.00
2023-03-30T21:13:37.822Z,11.00
2023-03-30T21:16:08.797Z,11.00
2023-03-30T21:18:37.001Z,11.20
2023-03-30T21:21:06.010Z,11.10
2023-03-30T21:23:34.233Z,11.20
2023-03-30T21:26:06.065Z,11.10
2023-03-30T21:28:39.782Z,11.00
2023-03-30T21:31:14.982Z,11.00
2023-03-30T21:33:45.561Z,11.00
2023-03-30T21:36:14.084Z,11.20
2023-03-30T21:38:42.323Z,11.40
2023-03-30T21:41:14.234Z,11.40
2023-03-30T21:43:47.263Z,11.40
2023-03-30T21:46:18.091Z,11.50
2023-03-30T21:48:47.766Z,11.60
2023-03-30T21:51:18.113Z,11.70
2023-03-30T21:53:49.032Z,11.80
2023-03-30T21:56:17.428Z,11.80
2023-03-30T21:58:47.277Z,11.80
2023-03-30T22:01:15.722Z,11.70
2023-03-30T22:03:45.845Z,11.70
2023-03-30T22:06:17.226Z,11.60
2023-03-30T22:08:45.985Z,11.50
2023-03-30T22:11:16.809Z,11.60
2023-03-30T22:13:48.592Z,11.50
2023-03-30T22:16:19.596Z,11.50
2023-03-30T22:18:47.921Z,11.40
2023-03-30T22:21:18.796Z,11.40
2023-03-30T22:23:46.800Z,11.30
2023-03-30T22:26:15.600Z,11.50
2023-03-30T22:28:45.816Z,11.50
2023-03-30T22:31:16.793Z,11.50
2023-03-30T22:33:45.275Z,11.30
2023-03-30T22:36:20.612Z,11.50
2023-03-30T22:38:50.762Z,11.40
2023-03-30T22:41:23.524Z,11.40
2023-03-30T22:43:54.048Z,11.30
2023-03-30T22:46:22.758Z,11.20
2023-03-30T22:48:51.693Z,11.40
2023-03-30T22:51:23.584Z,11.30
2023-03-30T22:53:51.708Z,11.50
2023-03-30T22:56:19.756Z,11.40
2023-03-30T22:58:48.644Z,11.40
2023-03-30T23:01:19.432Z,11.60
2023-03-30T23:03:47.516Z,11.60
2023-03-30T23:06:18.714Z,11.40
2023-03-30T23:08:48.622Z,11.40
2023-03-30T23:11:21.398Z,11.30
2023-03-30T23:13:52.184Z,11.40
2023-03-30T23:16:21.838Z,11.50
2023-03-30T23:18:50.444Z,11.40
2023-03-30T23:21:21.839Z,11.30
2023-03-30T23:23:49.821Z,11.30
2023-03-30T23:26:19.812Z,11.50
2023-03-30T23:28:47.824Z,11.50
2023-03-30T23:31:18.828Z,11.40
2023-03-30T23:33:48.997Z,11.40
2023-03-30T23:36:19.117Z,11.40
2023-03-30T23:38:48.202Z,11.50
2023-03-30T23:41:19.033Z,11.30
2023-03-30T23:43:47.744Z,11.40
2023-03-30T23:46:16.598Z,11.50
2023-03-30T23:48:44.892Z,11.30
2023-03-30T23:51:14.266Z,11.30
2023-03-30T23:53:42.287Z,11.30
2023-03-30T23:56:13.194Z,11.10
2023-03-30T23:58:41.745Z,11.10
